sensor_id;sensor_type;location;lat;lon;timestamp;P1;durP1;ratioP1;P2;durP2;ratioP2
5349;SDS011;2697;42.144;24.794;2022-09-11T00:00:34;9.43;;;4.80;;
5349;SDS011;2697;42.144;24.794;2022-09-11T00:03:00;10.47;;;4.13;;
5349;SDS011;2697;42.144;24.794;2022-09-11T00:05:25;13.00;;;4.40;;
5349;SDS011;2697;42.144;24.794;2022-09-11T00:07:52;12.23;;;4.20;;
5349;SDS011;2697;42.144;24.794;2022-09-11T00:10:17;15.03;;;5.07;;
5349;SDS011;2697;42.144;24.794;2022-09-11T00:12:43;9.47;;;5.20;;
5349;SDS011;2697;42.144;24.794;2022-09-11T00:15:08;9.23;;;4.33;;
5349;SDS011;2697;42.144;24.794;2022-09-11T00:17:35;5.73;;;4.57;;
5349;SDS011;2697;42.144;24.794;2022-09-11T00:20:02;6.13;;;4.00;;
5349;SDS011;2697;42.144;24.794;2022-09-11T00:22:28;11.60;;;5.43;;
5349;SDS011;2697;42.144;24.794;2022-09-11T00:24:54;17.00;;;5.63;;
5349;SDS011;2697;42.144;24.794;2022-09-11T00:27:19;11.20;;;5.30;;
5349;SDS011;2697;42.144;24.794;2022-09-11T00:29:45;16.30;;;5.20;;
5349;SDS011;2697;42.144;24.794;2022-09-11T00:32:10;15.63;;;5.07;;
5349;SDS011;2697;42.144;24.794;2022-09-11T00:34:36;12.40;;;4.60;;
5349;SDS011;2697;42.144;24.794;2022-09-11T00:37:03;6.80;;;4.37;;
5349;SDS011;2697;42.144;24.794;2022-09-11T00:39:29;19.40;;;5.27;;
5349;SDS011;2697;42.144;24.794;2022-09-11T00:41:54;14.60;;;4.67;;
5349;SDS011;2697;42.144;24.794;2022-09-11T00:46:52;13.13;;;5.00;;
5349;SDS011;2697;42.144;24.794;2022-09-11T00:49:21;11.93;;;5.53;;
5349;SDS011;2697;42.144;24.794;2022-09-11T00:52:08;8.27;;;5.80;;
5349;SDS011;2697;42.144;24.794;2022-09-11T00:54:35;8.93;;;4.33;;
5349;SDS011;2697;42.144;24.794;2022-09-11T00:57:07;5.67;;;4.73;;
5349;SDS011;2697;42.144;24.794;2022-09-11T00:59:33;22.60;;;4.93;;
5349;SDS011;2697;42.144;24.794;2022-09-11T01:02:00;13.90;;;4.70;;
5349;SDS011;2697;42.144;24.794;2022-09-11T01:04:26;15.43;;;5.07;;
5349;SDS011;2697;42.144;24.794;2022-09-11T01:06:54;10.13;;;5.40;;
5349;SDS011;2697;42.144;24.794;2022-09-11T01:09:24;11.67;;;4.63;;
5349;SDS011;2697;42.144;24.794;2022-09-11T01:11:55;9.83;;;6.50;;
5349;SDS011;2697;42.144;24.794;2022-09-11T01:26:51;4.90;;;4.33;;
5349;SDS011;2697;42.144;24.794;2022-09-11T01:29:25;11.93;;;5.57;;
5349;SDS011;2697;42.144;24.794;2022-09-11T01:31:56;8.43;;;4.80;;
5349;SDS011;2697;42.144;24.794;2022-09-11T01:37:23;7.23;;;5.23;;
5349;SDS011;2697;42.144;24.794;2022-09-11T01:39:57;11.70;;;6.00;;
5349;SDS011;2697;42.144;24.794;2022-09-11T01:42:28;11.93;;;5.17;;
5349;SDS011;2697;42.144;24.794;2022-09-11T01:44:58;10.50;;;6.30;;
5349;SDS011;2697;42.144;24.794;2022-09-11T01:47:23;8.13;;;5.50;;
5349;SDS011;2697;42.144;24.794;2022-09-11T01:52:33;16.40;;;6.00;;
5349;SDS011;2697;42.144;24.794;2022-09-11T01:55:08;9.13;;;4.93;;
5349;SDS011;2697;42.144;24.794;2022-09-11T01:57:54;10.60;;;4.90;;
5349;SDS011;2697;42.144;24.794;2022-09-11T02:00:24;8.40;;;4.87;;
5349;SDS011;2697;42.144;24.794;2022-09-11T02:02:58;7.70;;;4.83;;
5349;SDS011;2697;42.144;24.794;2022-09-11T02:05:29;9.03;;;5.67;;
5349;SDS011;2697;42.144;24.794;2022-09-11T02:08:02;15.00;;;5.30;;
5349;SDS011;2697;42.144;24.794;2022-09-11T02:10:38;12.67;;;6.63;;
5349;SDS011;2697;42.144;24.794;2022-09-11T02:13:11;10.90;;;6.73;;
5349;SDS011;2697;42.144;24.794;2022-09-11T02:15:42;7.20;;;4.70;;
5349;SDS011;2697;42.144;24.794;2022-09-11T02:20:39;12.97;;;5.33;;
5349;SDS011;2697;42.144;24.794;2022-09-11T02:23:09;10.07;;;6.17;;
5349;SDS011;2697;42.144;24.794;2022-09-11T02:25:35;8.27;;;5.60;;
5349;SDS011;2697;42.144;24.794;2022-09-11T02:28:00;8.73;;;6.00;;
5349;SDS011;2697;42.144;24.794;2022-09-11T02:30:25;14.67;;;7.07;;
5349;SDS011;2697;42.144;24.794;2022-09-11T02:32:53;17.10;;;5.60;;
5349;SDS011;2697;42.144;24.794;2022-09-11T02:35:18;11.53;;;7.80;;
5349;SDS011;2697;42.144;24.794;2022-09-11T02:56:16;10.10;;;5.27;;
5349;SDS011;2697;42.144;24.794;2022-09-11T02:58:54;8.00;;;5.67;;
5349;SDS011;2697;42.144;24.794;2022-09-11T03:01:22;17.40;;;6.03;;
5349;SDS011;2697;42.144;24.794;2022-09-11T03:03:48;8.30;;;5.70;;
5349;SDS011;2697;42.144;24.794;2022-09-11T03:06:17;11.40;;;6.07;;
5349;SDS011;2697;42.144;24.794;2022-09-11T03:08:48;7.73;;;5.43;;
5349;SDS011;2697;42.144;24.794;2022-09-11T03:11:14;6.80;;;4.67;;
5349;SDS011;2697;42.144;24.794;2022-09-11T03:13:41;15.47;;;5.90;;
5349;SDS011;2697;42.144;24.794;2022-09-11T03:16:08;10.70;;;5.57;;
5349;SDS011;2697;42.144;24.794;2022-09-11T03:18:34;11.57;;;6.30;;
5349;SDS011;2697;42.144;24.794;2022-09-11T03:21:01;17.00;;;6.77;;
5349;SDS011;2697;42.144;24.794;2022-09-11T03:23:27;9.80;;;5.33;;
5349;SDS011;2697;42.144;24.794;2022-09-11T03:25:53;7.47;;;5.63;;
5349;SDS011;2697;42.144;24.794;2022-09-11T03:28:19;10.47;;;5.30;;
5349;SDS011;2697;42.144;24.794;2022-09-11T03:30:47;11.90;;;4.63;;
5349;SDS011;2697;42.144;24.794;2022-09-11T03:33:13;12.20;;;4.47;;
5349;SDS011;2697;42.144;24.794;2022-09-11T03:35:40;15.40;;;5.13;;
5349;SDS011;2697;42.144;24.794;2022-09-11T03:38:07;8.50;;;4.70;;
5349;SDS011;2697;42.144;24.794;2022-09-11T03:40:32;18.40;;;5.13;;
5349;SDS011;2697;42.144;24.794;2022-09-11T03:42:57;7.20;;;4.50;;
5349;SDS011;2697;42.144;24.794;2022-09-11T03:45:23;18.73;;;5.07;;
5349;SDS011;2697;42.144;24.794;2022-09-11T03:47:49;16.20;;;5.70;;
5349;SDS011;2697;42.144;24.794;2022-09-11T03:50:14;13.27;;;5.33;;
5349;SDS011;2697;42.144;24.794;2022-09-11T03:52:39;14.53;;;6.10;;
5349;SDS011;2697;42.144;24.794;2022-09-11T03:55:05;10.13;;;5.90;;
5349;SDS011;2697;42.144;24.794;2022-09-11T03:57:31;13.00;;;4.90;;
5349;SDS011;2697;42.144;24.794;2022-09-11T03:59:58;7.80;;;4.80;;
5349;SDS011;2697;42.144;24.794;2022-09-11T04:02:25;14.97;;;4.67;;
5349;SDS011;2697;42.144;24.794;2022-09-11T04:04:50;6.90;;;4.13;;
5349;SDS011;2697;42.144;24.794;2022-09-11T04:07:15;7.27;;;5.20;;
5349;SDS011;2697;42.144;24.794;2022-09-11T04:09:41;9.43;;;5.57;;
5349;SDS011;2697;42.144;24.794;2022-09-11T04:12:06;11.67;;;4.70;;
5349;SDS011;2697;42.144;24.794;2022-09-11T04:14:32;6.77;;;4.27;;
5349;SDS011;2697;42.144;24.794;2022-09-11T04:16:57;9.73;;;4.50;;
5349;SDS011;2697;42.144;24.794;2022-09-11T04:19:23;6.57;;;4.33;;
5349;SDS011;2697;42.144;24.794;2022-09-11T04:21:49;6.87;;;4.60;;
5349;SDS011;2697;42.144;24.794;2022-09-11T04:24:14;7.67;;;4.70;;
5349;SDS011;2697;42.144;24.794;2022-09-11T04:26:40;7.30;;;4.47;;
5349;SDS011;2697;42.144;24.794;2022-09-11T04:29:05;13.07;;;5.40;;
5349;SDS011;2697;42.144;24.794;2022-09-11T04:31:33;8.20;;;5.00;;
5349;SDS011;2697;42.144;24.794;2022-09-11T04:33:59;10.17;;;4.77;;
5349;SDS011;2697;42.144;24.794;2022-09-11T04:36:24;5.93;;;4.30;;
5349;SDS011;2697;42.144;24.794;2022-09-11T04:38:53;5.00;;;3.70;;
5349;SDS011;2697;42.144;24.794;2022-09-11T04:41:20;15.70;;;4.77;;
5349;SDS011;2697;42.144;24.794;2022-09-11T04:43:46;10.40;;;4.00;;
5349;SDS011;2697;42.144;24.794;2022-09-11T04:46:15;7.83;;;3.97;;
5349;SDS011;2697;42.144;24.794;2022-09-11T04:48:42;5.43;;;3.83;;
5349;SDS011;2697;42.144;24.794;2022-09-11T04:51:15;8.43;;;4.30;;
5349;SDS011;2697;42.144;24.794;2022-09-11T04:53:51;5.90;;;3.43;;
5349;SDS011;2697;42.144;24.794;2022-09-11T04:56:21;5.50;;;3.57;;
5349;SDS011;2697;42.144;24.794;2022-09-11T04:58:51;4.30;;;2.70;;
5349;SDS011;2697;42.144;24.794;2022-09-11T05:01:19;4.47;;;3.13;;
5349;SDS011;2697;42.144;24.794;2022-09-11T05:03:45;7.00;;;3.70;;
5349;SDS011;2697;42.144;24.794;2022-09-11T05:06:11;5.30;;;3.40;;
5349;SDS011;2697;42.144;24.794;2022-09-11T05:08:40;7.63;;;3.47;;
5349;SDS011;2697;42.144;24.794;2022-09-11T05:11:09;10.90;;;3.30;;
5349;SDS011;2697;42.144;24.794;2022-09-11T05:13:39;12.77;;;3.70;;
5349;SDS011;2697;42.144;24.794;2022-09-11T05:16:06;15.10;;;3.50;;
5349;SDS011;2697;42.144;24.794;2022-09-11T05:18:36;6.38;;;2.20;;
5349;SDS011;2697;42.144;24.794;2022-09-11T05:21:06;8.38;;;3.05;;
5349;SDS011;2697;42.144;24.794;2022-09-11T05:23:36;4.60;;;3.28;;
5349;SDS011;2697;42.144;24.794;2022-09-11T05:26:03;8.32;;;4.30;;
5349;SDS011;2697;42.144;24.794;2022-09-11T05:28:30;11.40;;;3.80;;
5349;SDS011;2697;42.144;24.794;2022-09-11T05:30:56;10.27;;;3.13;;
5349;SDS011;2697;42.144;24.794;2022-09-11T05:33:23;3.17;;;2.88;;
5349;SDS011;2697;42.144;24.794;2022-09-11T05:35:50;8.93;;;4.10;;
5349;SDS011;2697;42.144;24.794;2022-09-11T05:38:16;8.07;;;3.33;;
5349;SDS011;2697;42.144;24.794;2022-09-11T05:40:43;17.80;;;3.95;;
5349;SDS011;2697;42.144;24.794;2022-09-11T05:43:10;19.13;;;4.13;;
5349;SDS011;2697;42.144;24.794;2022-09-11T05:45:37;5.85;;;3.15;;
5349;SDS011;2697;42.144;24.794;2022-09-11T05:48:02;6.65;;;2.85;;
5349;SDS011;2697;42.144;24.794;2022-09-11T05:50:27;10.07;;;3.17;;
5349;SDS011;2697;42.144;24.794;2022-09-11T05:52:55;8.98;;;3.33;;
5349;SDS011;2697;42.144;24.794;2022-09-11T05:55:21;8.80;;;4.82;;
5349;SDS011;2697;42.144;24.794;2022-09-11T05:57:46;9.40;;;4.47;;
5349;SDS011;2697;42.144;24.794;2022-09-11T06:00:12;7.78;;;4.78;;
5349;SDS011;2697;42.144;24.794;2022-09-11T06:02:37;9.60;;;3.85;;
5349;SDS011;2697;42.144;24.794;2022-09-11T06:05:03;11.52;;;4.82;;
5349;SDS011;2697;42.144;24.794;2022-09-11T06:07:28;7.72;;;3.20;;
5349;SDS011;2697;42.144;24.794;2022-09-11T06:09:54;6.68;;;3.75;;
5349;SDS011;2697;42.144;24.794;2022-09-11T06:12:21;9.18;;;3.53;;
5349;SDS011;2697;42.144;24.794;2022-09-11T06:14:46;6.68;;;3.60;;
5349;SDS011;2697;42.144;24.794;2022-09-11T06:17:12;8.82;;;4.45;;
5349;SDS011;2697;42.144;24.794;2022-09-11T06:19:37;7.72;;;4.43;;
5349;SDS011;2697;42.144;24.794;2022-09-11T06:22:03;4.70;;;3.25;;
5349;SDS011;2697;42.144;24.794;2022-09-11T06:24:28;4.13;;;3.10;;
5349;SDS011;2697;42.144;24.794;2022-09-11T06:26:53;6.22;;;3.47;;
5349;SDS011;2697;42.144;24.794;2022-09-11T06:29:19;5.07;;;3.00;;
5349;SDS011;2697;42.144;24.794;2022-09-11T06:31:44;11.55;;;3.25;;
5349;SDS011;2697;42.144;24.794;2022-09-11T06:34:11;5.38;;;3.38;;
5349;SDS011;2697;42.144;24.794;2022-09-11T06:36:37;8.43;;;3.20;;
5349;SDS011;2697;42.144;24.794;2022-09-11T06:39:04;4.03;;;3.20;;
5349;SDS011;2697;42.144;24.794;2022-09-11T06:41:29;3.70;;;3.17;;
5349;SDS011;2697;42.144;24.794;2022-09-11T06:43:55;14.27;;;4.00;;
5349;SDS011;2697;42.144;24.794;2022-09-11T06:46:21;4.67;;;3.03;;
5349;SDS011;2697;42.144;24.794;2022-09-11T06:48:49;5.10;;;3.90;;
5349;SDS011;2697;42.144;24.794;2022-09-11T06:51:15;24.43;;;4.30;;
5349;SDS011;2697;42.144;24.794;2022-09-11T06:53:43;10.80;;;3.57;;
5349;SDS011;2697;42.144;24.794;2022-09-11T06:56:12;4.17;;;3.33;;
5349;SDS011;2697;42.144;24.794;2022-09-11T06:58:40;3.50;;;3.17;;
5349;SDS011;2697;42.144;24.794;2022-09-11T07:01:10;6.70;;;3.60;;
5349;SDS011;2697;42.144;24.794;2022-09-11T07:03:36;4.00;;;3.10;;
5349;SDS011;2697;42.144;24.794;2022-09-11T07:06:02;5.17;;;2.93;;
5349;SDS011;2697;42.144;24.794;2022-09-11T07:08:27;8.10;;;4.07;;
5349;SDS011;2697;42.144;24.794;2022-09-11T07:10:53;3.43;;;2.70;;
5349;SDS011;2697;42.144;24.794;2022-09-11T07:13:19;4.07;;;2.93;;
5349;SDS011;2697;42.144;24.794;2022-09-11T07:15:45;6.30;;;3.13;;
5349;SDS011;2697;42.144;24.794;2022-09-11T07:18:13;4.33;;;2.80;;
5349;SDS011;2697;42.144;24.794;2022-09-11T07:20:39;5.20;;;3.10;;
5349;SDS011;2697;42.144;24.794;2022-09-11T07:23:05;3.70;;;2.70;;
5349;SDS011;2697;42.144;24.794;2022-09-11T07:25:34;8.47;;;2.87;;
5349;SDS011;2697;42.144;24.794;2022-09-11T07:28:03;6.50;;;3.43;;
5349;SDS011;2697;42.144;24.794;2022-09-11T07:30:28;18.60;;;2.97;;
5349;SDS011;2697;42.144;24.794;2022-09-11T07:32:55;5.93;;;2.60;;
5349;SDS011;2697;42.144;24.794;2022-09-11T07:35:20;3.87;;;3.30;;
5349;SDS011;2697;42.144;24.794;2022-09-11T07:37:46;11.97;;;3.80;;
5349;SDS011;2697;42.144;24.794;2022-09-11T07:40:12;2.80;;;2.10;;
5349;SDS011;2697;42.144;24.794;2022-09-11T07:42:38;9.73;;;2.30;;
5349;SDS011;2697;42.144;24.794;2022-09-11T07:45:05;4.00;;;2.40;;
5349;SDS011;2697;42.144;24.794;2022-09-11T07:47:30;2.93;;;2.30;;
5349;SDS011;2697;42.144;24.794;2022-09-11T07:49:57;4.50;;;2.67;;
5349;SDS011;2697;42.144;24.794;2022-09-11T07:52:23;3.17;;;2.20;;
5349;SDS011;2697;42.144;24.794;2022-09-11T07:54:49;5.20;;;2.77;;
5349;SDS011;2697;42.144;24.794;2022-09-11T07:57:15;5.77;;;3.00;;
5349;SDS011;2697;42.144;24.794;2022-09-11T07:59:40;8.93;;;3.20;;
5349;SDS011;2697;42.144;24.794;2022-09-11T08:02:06;5.20;;;2.83;;
5349;SDS011;2697;42.144;24.794;2022-09-11T08:04:33;5.07;;;3.33;;
5349;SDS011;2697;42.144;24.794;2022-09-11T08:06:58;10.00;;;2.57;;
5349;SDS011;2697;42.144;24.794;2022-09-11T08:09:25;3.40;;;2.93;;
5349;SDS011;2697;42.144;24.794;2022-09-11T08:11:54;9.17;;;3.20;;
5349;SDS011;2697;42.144;24.794;2022-09-11T08:14:22;6.27;;;3.37;;
5349;SDS011;2697;42.144;24.794;2022-09-11T08:16:51;4.60;;;3.10;;
5349;SDS011;2697;42.144;24.794;2022-09-11T08:19:19;5.40;;;3.07;;
5349;SDS011;2697;42.144;24.794;2022-09-11T08:21:46;7.80;;;3.10;;
5349;SDS011;2697;42.144;24.794;2022-09-11T08:24:13;7.60;;;3.70;;
5349;SDS011;2697;42.144;24.794;2022-09-11T08:26:41;6.63;;;3.60;;
5349;SDS011;2697;42.144;24.794;2022-09-11T08:29:06;6.87;;;3.70;;
5349;SDS011;2697;42.144;24.794;2022-09-11T08:31:32;6.70;;;2.90;;
5349;SDS011;2697;42.144;24.794;2022-09-11T08:33:59;5.50;;;2.60;;
5349;SDS011;2697;42.144;24.794;2022-09-11T08:36:24;3.13;;;2.80;;
5349;SDS011;2697;42.144;24.794;2022-09-11T08:38:51;7.70;;;3.10;;
5349;SDS011;2697;42.144;24.794;2022-09-11T08:44:02;4.63;;;3.40;;
5349;SDS011;2697;42.144;24.794;2022-09-11T08:46:36;4.20;;;3.20;;
5349;SDS011;2697;42.144;24.794;2022-09-11T08:49:16;10.47;;;3.30;;
5349;SDS011;2697;42.144;24.794;2022-09-11T08:51:47;3.90;;;3.10;;
5349;SDS011;2697;42.144;24.794;2022-09-11T08:54:22;3.20;;;2.70;;
5349;SDS011;2697;42.144;24.794;2022-09-11T08:56:52;12.00;;;3.17;;
5349;SDS011;2697;42.144;24.794;2022-09-11T09:04:58;4.90;;;3.33;;
5349;SDS011;2697;42.144;24.794;2022-09-11T09:16:12;7.77;;;4.20;;
5349;SDS011;2697;42.144;24.794;2022-09-11T09:19:13;4.33;;;3.30;;
5349;SDS011;2697;42.144;24.794;2022-09-11T09:24:18;4.90;;;2.30;;
5349;SDS011;2697;42.144;24.794;2022-09-11T09:26:51;2.93;;;2.73;;
5349;SDS011;2697;42.144;24.794;2022-09-11T09:29:19;8.00;;;3.87;;
5349;SDS011;2697;42.144;24.794;2022-09-11T09:31:48;3.10;;;2.80;;
5349;SDS011;2697;42.144;24.794;2022-09-11T09:34:18;3.00;;;2.70;;
5349;SDS011;2697;42.144;24.794;2022-09-11T09:36:49;6.17;;;2.77;;
5349;SDS011;2697;42.144;24.794;2022-09-11T09:39:29;11.60;;;3.37;;
5349;SDS011;2697;42.144;24.794;2022-09-11T09:45:20;4.27;;;3.40;;
5349;SDS011;2697;42.144;24.794;2022-09-11T09:47:50;6.27;;;3.60;;
5349;SDS011;2697;42.144;24.794;2022-09-11T09:50:20;9.37;;;4.00;;
5349;SDS011;2697;42.144;24.794;2022-09-11T09:52:51;7.07;;;3.77;;
5349;SDS011;2697;42.144;24.794;2022-09-11T09:55:27;6.87;;;3.33;;
5349;SDS011;2697;42.144;24.794;2022-09-11T09:57:53;6.83;;;3.50;;
5349;SDS011;2697;42.144;24.794;2022-09-11T10:00:18;5.80;;;3.77;;
5349;SDS011;2697;42.144;24.794;2022-09-11T10:08:27;5.93;;;3.20;;
5349;SDS011;2697;42.144;24.794;2022-09-11T10:13:25;8.00;;;2.63;;
5349;SDS011;2697;42.144;24.794;2022-09-11T10:15:56;2.93;;;2.73;;
5349;SDS011;2697;42.144;24.794;2022-09-11T10:18:34;13.47;;;3.83;;
5349;SDS011;2697;42.144;24.794;2022-09-11T10:29:38;4.63;;;2.57;;
5349;SDS011;2697;42.144;24.794;2022-09-11T10:31:52;17.87;;;3.23;;
5349;SDS011;2697;42.144;24.794;2022-09-11T10:34:21;4.10;;;2.70;;
5349;SDS011;2697;42.144;24.794;2022-09-11T10:36:54;6.47;;;3.20;;
5349;SDS011;2697;42.144;24.794;2022-09-11T10:39:25;5.00;;;3.30;;
5349;SDS011;2697;42.144;24.794;2022-09-11T10:41:53;6.53;;;3.10;;
5349;SDS011;2697;42.144;24.794;2022-09-11T10:44:21;3.90;;;2.97;;
5349;SDS011;2697;42.144;24.794;2022-09-11T10:49:42;4.00;;;2.97;;
5349;SDS011;2697;42.144;24.794;2022-09-11T11:02:43;8.70;;;2.13;;
5349;SDS011;2697;42.144;24.794;2022-09-11T11:22:50;6.27;;;2.77;;
5349;SDS011;2697;42.144;24.794;2022-09-11T11:26:22;2.40;;;2.20;;
5349;SDS011;2697;42.144;24.794;2022-09-11T11:37:15;16.10;;;8.17;;
5349;SDS011;2697;42.144;24.794;2022-09-11T11:43:00;4.80;;;1.60;;
5349;SDS011;2697;42.144;24.794;2022-09-11T11:48:19;2.20;;;1.70;;
5349;SDS011;2697;42.144;24.794;2022-09-11T11:50:55;3.53;;;1.53;;
5349;SDS011;2697;42.144;24.794;2022-09-11T11:53:45;1.75;;;1.60;;
5349;SDS011;2697;42.144;24.794;2022-09-11T11:56:40;2.40;;;2.20;;
5349;SDS011;2697;42.144;24.794;2022-09-11T12:02:03;1.63;;;1.38;;
5349;SDS011;2697;42.144;24.794;2022-09-11T12:07:28;2.80;;;1.80;;
5349;SDS011;2697;42.144;24.794;2022-09-11T12:09:58;7.60;;;1.80;;
5349;SDS011;2697;42.144;24.794;2022-09-11T12:12:26;2.20;;;1.87;;
5349;SDS011;2697;42.144;24.794;2022-09-11T12:15:06;1.80;;;1.38;;
5349;SDS011;2697;42.144;24.794;2022-09-11T12:17:34;2.10;;;1.90;;
5349;SDS011;2697;42.144;24.794;2022-09-11T12:22:34;5.00;;;2.22;;
5349;SDS011;2697;42.144;24.794;2022-09-11T12:30:08;3.05;;;2.13;;
5349;SDS011;2697;42.144;24.794;2022-09-11T12:40:32;3.97;;;2.40;;
5349;SDS011;2697;42.144;24.794;2022-09-11T12:44:03;2.70;;;1.88;;
5349;SDS011;2697;42.144;24.794;2022-09-11T12:46:03;5.95;;;2.00;;
5349;SDS011;2697;42.144;24.794;2022-09-11T12:48:42;1.60;;;1.50;;
5349;SDS011;2697;42.144;24.794;2022-09-11T12:51:31;3.28;;;1.98;;
5349;SDS011;2697;42.144;24.794;2022-09-11T12:53:59;6.93;;;2.58;;
5349;SDS011;2697;42.144;24.794;2022-09-11T12:56:29;7.10;;;2.00;;
5349;SDS011;2697;42.144;24.794;2022-09-11T12:59:03;3.80;;;2.25;;
5349;SDS011;2697;42.144;24.794;2022-09-11T13:01:42;2.38;;;2.20;;
5349;SDS011;2697;42.144;24.794;2022-09-11T13:14:50;4.50;;;1.95;;
5349;SDS011;2697;42.144;24.794;2022-09-11T13:17:26;5.47;;;2.10;;
5349;SDS011;2697;42.144;24.794;2022-09-11T13:22:34;6.40;;;2.40;;
5349;SDS011;2697;42.144;24.794;2022-09-11T13:25:14;7.95;;;2.78;;
5349;SDS011;2697;42.144;24.794;2022-09-11T13:27:49;1.88;;;1.77;;
5349;SDS011;2697;42.144;24.794;2022-09-11T13:30:20;3.80;;;2.00;;
5349;SDS011;2697;42.144;24.794;2022-09-11T13:32:47;3.03;;;2.30;;
5349;SDS011;2697;42.144;24.794;2022-09-11T13:35:21;5.97;;;2.20;;
5349;SDS011;2697;42.144;24.794;2022-09-11T13:37:55;5.07;;;2.33;;
5349;SDS011;2697;42.144;24.794;2022-09-11T13:40:40;5.43;;;2.53;;
5349;SDS011;2697;42.144;24.794;2022-09-11T13:43:13;3.53;;;2.37;;
5349;SDS011;2697;42.144;24.794;2022-09-11T13:46:34;2.33;;;2.13;;
5349;SDS011;2697;42.144;24.794;2022-09-11T13:48:55;4.00;;;2.20;;
5349;SDS011;2697;42.144;24.794;2022-09-11T13:51:43;2.53;;;1.60;;
5349;SDS011;2697;42.144;24.794;2022-09-11T13:54:14;2.53;;;2.20;;
5349;SDS011;2697;42.144;24.794;2022-09-11T13:59:42;7.33;;;2.20;;
5349;SDS011;2697;42.144;24.794;2022-09-11T14:05:20;4.60;;;2.27;;
5349;SDS011;2697;42.144;24.794;2022-09-11T14:10:44;4.63;;;2.90;;
5349;SDS011;2697;42.144;24.794;2022-09-11T14:16:02;13.67;;;2.53;;
5349;SDS011;2697;42.144;24.794;2022-09-11T14:18:30;3.45;;;2.50;;
5349;SDS011;2697;42.144;24.794;2022-09-11T14:21:01;4.40;;;2.30;;
5349;SDS011;2697;42.144;24.794;2022-09-11T14:23:30;5.17;;;2.80;;
5349;SDS011;2697;42.144;24.794;2022-09-11T14:34:10;14.60;;;3.23;;
5349;SDS011;2697;42.144;24.794;2022-09-11T14:36:50;3.23;;;2.70;;
5349;SDS011;2697;42.144;24.794;2022-09-11T14:41:48;3.60;;;2.80;;
5349;SDS011;2697;42.144;24.794;2022-09-11T14:44:14;3.30;;;2.70;;
5349;SDS011;2697;42.144;24.794;2022-09-11T14:46:41;3.13;;;2.50;;
5349;SDS011;2697;42.144;24.794;2022-09-11T14:49:07;5.73;;;2.80;;
5349;SDS011;2697;42.144;24.794;2022-09-11T14:51:34;8.50;;;2.70;;
5349;SDS011;2697;42.144;24.794;2022-09-11T14:54:01;3.73;;;2.50;;
5349;SDS011;2697;42.144;24.794;2022-09-11T14:56:27;5.13;;;2.90;;
5349;SDS011;2697;42.144;24.794;2022-09-11T14:58:52;4.77;;;2.37;;
5349;SDS011;2697;42.144;24.794;2022-09-11T15:01:17;6.80;;;2.90;;
5349;SDS011;2697;42.144;24.794;2022-09-11T15:03:44;5.83;;;3.13;;
5349;SDS011;2697;42.144;24.794;2022-09-11T15:06:12;6.13;;;2.93;;
5349;SDS011;2697;42.144;24.794;2022-09-11T15:08:42;9.20;;;2.60;;
5349;SDS011;2697;42.144;24.794;2022-09-11T15:11:09;12.73;;;3.63;;
5349;SDS011;2697;42.144;24.794;2022-09-11T15:13:35;3.77;;;2.50;;
5349;SDS011;2697;42.144;24.794;2022-09-11T15:16:01;7.57;;;3.30;;
5349;SDS011;2697;42.144;24.794;2022-09-11T15:18:26;3.50;;;2.87;;
5349;SDS011;2697;42.144;24.794;2022-09-11T15:20:51;4.20;;;3.50;;
5349;SDS011;2697;42.144;24.794;2022-09-11T15:23:17;5.63;;;3.30;;
5349;SDS011;2697;42.144;24.794;2022-09-11T15:25:42;10.70;;;3.60;;
5349;SDS011;2697;42.144;24.794;2022-09-11T15:28:08;3.38;;;3.05;;
5349;SDS011;2697;42.144;24.794;2022-09-11T15:30:34;4.10;;;3.40;;
5349;SDS011;2697;42.144;24.794;2022-09-11T15:33:01;3.50;;;2.97;;
5349;SDS011;2697;42.144;24.794;2022-09-11T15:35:27;5.30;;;2.80;;
5349;SDS011;2697;42.144;24.794;2022-09-11T15:37:52;5.90;;;3.33;;
5349;SDS011;2697;42.144;24.794;2022-09-11T15:40:18;5.17;;;3.10;;
5349;SDS011;2697;42.144;24.794;2022-09-11T15:42:44;6.60;;;3.60;;
5349;SDS011;2697;42.144;24.794;2022-09-11T15:45:09;8.77;;;4.23;;
5349;SDS011;2697;42.144;24.794;2022-09-11T15:47:36;14.60;;;3.77;;
5349;SDS011;2697;42.144;24.794;2022-09-11T15:50:03;6.60;;;3.60;;
5349;SDS011;2697;42.144;24.794;2022-09-11T15:52:30;8.03;;;3.10;;
5349;SDS011;2697;42.144;24.794;2022-09-11T15:54:57;5.37;;;2.97;;
5349;SDS011;2697;42.144;24.794;2022-09-11T15:57:22;9.30;;;3.30;;
5349;SDS011;2697;42.144;24.794;2022-09-11T15:59:49;4.57;;;3.10;;
5349;SDS011;2697;42.144;24.794;2022-09-11T16:02:15;4.03;;;3.67;;
5349;SDS011;2697;42.144;24.794;2022-09-11T16:04:42;7.17;;;3.40;;
5349;SDS011;2697;42.144;24.794;2022-09-11T16:07:07;5.30;;;3.17;;
5349;SDS011;2697;42.144;24.794;2022-09-11T16:09:33;34.70;;;4.03;;
5349;SDS011;2697;42.144;24.794;2022-09-11T16:11:59;5.00;;;3.70;;
5349;SDS011;2697;42.144;24.794;2022-09-11T16:14:29;3.50;;;3.20;;
5349;SDS011;2697;42.144;24.794;2022-09-11T16:17:01;5.00;;;3.33;;
5349;SDS011;2697;42.144;24.794;2022-09-11T16:19:29;8.47;;;3.40;;
5349;SDS011;2697;42.144;24.794;2022-09-11T16:21:55;10.23;;;3.53;;
5349;SDS011;2697;42.144;24.794;2022-09-11T16:24:22;5.33;;;3.80;;
5349;SDS011;2697;42.144;24.794;2022-09-11T16:26:49;6.83;;;3.00;;
5349;SDS011;2697;42.144;24.794;2022-09-11T16:29:15;4.87;;;3.73;;
5349;SDS011;2697;42.144;24.794;2022-09-11T16:31:42;26.83;;;4.77;;
5349;SDS011;2697;42.144;24.794;2022-09-11T16:34:08;14.67;;;4.27;;
5349;SDS011;2697;42.144;24.794;2022-09-11T16:36:34;27.20;;;8.83;;
5349;SDS011;2697;42.144;24.794;2022-09-11T16:39:05;7.23;;;4.00;;
5349;SDS011;2697;42.144;24.794;2022-09-11T16:41:35;7.20;;;4.70;;
5349;SDS011;2697;42.144;24.794;2022-09-11T16:44:01;12.03;;;4.37;;
5349;SDS011;2697;42.144;24.794;2022-09-11T16:46:28;11.40;;;4.33;;
5349;SDS011;2697;42.144;24.794;2022-09-11T16:48:54;15.37;;;4.83;;
5349;SDS011;2697;42.144;24.794;2022-09-11T16:51:20;9.00;;;4.10;;
5349;SDS011;2697;42.144;24.794;2022-09-11T16:53:47;10.60;;;4.53;;
5349;SDS011;2697;42.144;24.794;2022-09-11T16:56:14;19.17;;;4.53;;
5349;SDS011;2697;42.144;24.794;2022-09-11T16:58:41;14.23;;;4.97;;
5349;SDS011;2697;42.144;24.794;2022-09-11T17:01:08;7.10;;;3.63;;
5349;SDS011;2697;42.144;24.794;2022-09-11T17:03:34;10.70;;;3.70;;
5349;SDS011;2697;42.144;24.794;2022-09-11T17:06:01;9.10;;;3.60;;
5349;SDS011;2697;42.144;24.794;2022-09-11T17:08:27;5.00;;;3.53;;
5349;SDS011;2697;42.144;24.794;2022-09-11T17:10:55;5.30;;;3.67;;
5349;SDS011;2697;42.144;24.794;2022-09-11T17:13:21;6.37;;;3.93;;
5349;SDS011;2697;42.144;24.794;2022-09-11T17:15:48;4.63;;;3.50;;
5349;SDS011;2697;42.144;24.794;2022-09-11T17:18:14;8.03;;;3.77;;
5349;SDS011;2697;42.144;24.794;2022-09-11T17:20:40;8.30;;;4.17;;
5349;SDS011;2697;42.144;24.794;2022-09-11T17:23:06;18.93;;;5.90;;
5349;SDS011;2697;42.144;24.794;2022-09-11T17:25:32;4.20;;;3.80;;
5349;SDS011;2697;42.144;24.794;2022-09-11T17:28:01;24.07;;;3.77;;
5349;SDS011;2697;42.144;24.794;2022-09-11T17:30:26;7.60;;;3.73;;
5349;SDS011;2697;42.144;24.794;2022-09-11T17:32:52;3.33;;;3.03;;
5349;SDS011;2697;42.144;24.794;2022-09-11T17:35:17;9.10;;;3.83;;
5349;SDS011;2697;42.144;24.794;2022-09-11T17:37:43;5.50;;;3.37;;
5349;SDS011;2697;42.144;24.794;2022-09-11T17:40:10;4.00;;;3.60;;
5349;SDS011;2697;42.144;24.794;2022-09-11T17:42:36;5.43;;;3.60;;
5349;SDS011;2697;42.144;24.794;2022-09-11T17:45:02;9.93;;;3.40;;
5349;SDS011;2697;42.144;24.794;2022-09-11T17:47:29;14.60;;;3.60;;
5349;SDS011;2697;42.144;24.794;2022-09-11T17:49:56;9.63;;;4.07;;
5349;SDS011;2697;42.144;24.794;2022-09-11T17:52:22;8.50;;;3.63;;
5349;SDS011;2697;42.144;24.794;2022-09-11T17:54:48;7.50;;;4.50;;
5349;SDS011;2697;42.144;24.794;2022-09-11T17:57:14;6.70;;;3.43;;
5349;SDS011;2697;42.144;24.794;2022-09-11T17:59:40;12.50;;;4.70;;
5349;SDS011;2697;42.144;24.794;2022-09-11T18:02:08;12.30;;;4.10;;
5349;SDS011;2697;42.144;24.794;2022-09-11T18:04:38;14.37;;;4.30;;
5349;SDS011;2697;42.144;24.794;2022-09-11T18:07:04;10.30;;;6.00;;
5349;SDS011;2697;42.144;24.794;2022-09-11T18:09:29;8.43;;;6.00;;